Time;durP1;ratioP1;P1;durP2;ratioP2;P2;SDS_P1;SDS_P2;PMS_P1;PMS_P2;Temp;Humidity;BMP_temperature;BMP_pressure;BME280_temperature;BME280_humidity;BME280_pressure;Samples;Min_cycle;Max_cycle;Signal;HPM_P1;HPM_P2
2023/07/25 00:03:18;;;;;;;;;;;;;;;22.65;56.33;94860.72;10445554;28;1988;-74
2023/07/25 00:08:18;;;;;;;;;;;;;;;22.66;56.13;94853.59;10452079;28;2056;-73
2023/07/25 00:13:18;;;;;;;;;;;;;;;22.63;56.32;94852.34;10453559;28;1862;-73
2023/07/25 00:18:19;;;;;;;;;;;;;;;22.65;56.05;94834.31;10490558;28;1935;-74
2023/07/25 00:23:19;;;;;;;;;;;;;;;22.65;56.05;94830.88;10457106;28;1838;-73
2023/07/25 00:28:22;;;;;;;;;;;;;;;22.63;56.34;94827.78;10446621;28;2320;-73
2023/07/25 00:33:22;;;;;;;;;;;;;;;22.60;56.18;94834.47;10441397;28;2139;-74
2023/07/25 00:38:22;;;;;;;;;;;;;;;22.64;56.06;94826.72;10440879;28;4541;-73
2023/07/25 00:43:23;;;;;;;;;;;;;;;22.66;55.94;94835.09;10452008;28;1971;-74
2023/07/25 00:48:24;;;;;;;;;;;;;;;22.67;55.89;94833.25;10450385;28;1985;-74
2023/07/25 00:53:26;;;;;;;;;;;;;;;22.64;56.09;94819.56;10459847;28;2020;-73
2023/07/25 00:58:27;;;;;;;;;;;;;;;22.65;56.05;94813.19;10463931;28;2034;-73
2023/07/25 01:03:27;;;;;;;;;;;;;;;22.57;55.98;94802.56;10431968;28;1959;-73
2023/07/25 01:08:27;;;;;;;;;;;;;;;22.60;55.91;94808.06;10449000;28;1970;-73
2023/07/25 01:13:28;;;;;;;;;;;;;;;22.55;56.09;94792.31;10454325;28;1945;-72
2023/07/25 01:18:28;;;;;;;;;;;;;;;22.60;55.66;94789.56;10448403;28;1965;-72
2023/07/25 01:23:28;;;;;;;;;;;;;;;22.62;56.00;94779.47;10445063;28;2320;-73
2023/07/25 01:28:29;;;;;;;;;;;;;;;22.63;55.60;94785.50;10442046;28;2068;-72
2023/07/25 01:33:29;;;;;;;;;;;;;;;22.64;55.68;94779.16;10445840;28;2014;-73
2023/07/25 01:38:29;;;;;;;;;;;;;;;22.63;55.43;94781.00;10446805;28;4453;-73
2023/07/25 01:43:30;;;;;;;;;;;;;;;22.61;55.40;94801.69;10448557;28;1975;-73
2023/07/25 01:48:30;;;;;;;;;;;;;;;22.58;55.37;94817.38;10443387;28;2029;-73
2023/07/25 01:53:30;;;;;;;;;;;;;;;22.54;55.39;94801.34;10445055;28;2118;-72
2023/07/25 01:58:30;;;;;;;;;;;;;;;22.55;55.27;94789.69;10448375;28;1979;-72
2023/07/25 02:03:31;;;;;;;;;;;;;;;22.53;55.56;94799.00;10446968;28;1993;-73
2023/07/25 02:08:31;;;;;;;;;;;;;;;22.54;55.47;94780.22;10444226;28;1997;-73
2023/07/25 02:13:31;;;;;;;;;;;;;;;22.57;55.03;94761.09;10444343;28;2347;-72
2023/07/25 02:18:32;;;;;;;;;;;;;;;22.59;55.34;94745.75;10443466;28;2229;-73
2023/07/25 02:23:32;;;;;;;;;;;;;;;22.58;54.95;94723.06;10443582;28;1920;-73
2023/07/25 02:28:32;;;;;;;;;;;;;;;22.65;55.06;94661.84;10443153;28;1975;-73
2023/07/25 02:33:32;;;;;;;;;;;;;;;22.67;54.97;94688.72;10448543;28;2007;-73
2023/07/25 02:38:33;;;;;;;;;;;;;;;22.67;55.01;94703.81;10455634;28;4482;-73
2023/07/25 02:43:33;;;;;;;;;;;;;;;22.67;54.92;94714.38;10454391;28;1979;-73
2023/07/25 02:48:33;;;;;;;;;;;;;;;22.70;54.98;94730.38;10450051;28;1907;-73
2023/07/25 02:53:34;;;;;;;;;;;;;;;22.70;54.93;94730.38;10457062;28;1955;-73
2023/07/25 02:58:34;;;;;;;;;;;;;;;22.72;54.81;94730.06;10452466;28;2020;-73
2023/07/25 03:03:34;;;;;;;;;;;;;;;22.72;54.93;94714.97;10450767;28;1892;-74
2023/07/25 03:08:34;;;;;;;;;;;;;;;22.75;54.88;94700.38;10447764;28;1956;-76
2023/07/25 03:13:35;;;;;;;;;;;;;;;22.75;54.94;94697.75;10445497;28;1939;-73
2023/07/25 03:18:35;;;;;;;;;;;;;;;22.77;54.59;94703.50;10451911;28;2034;-75
2023/07/25 03:23:35;;;;;;;;;;;;;;;22.78;54.65;94703.16;10454699;28;2134;-74
2023/07/25 03:28:35;;;;;;;;;;;;;;;22.79;54.56;94693.38;10453147;28;1959;-74
2023/07/25 03:33:36;;;;;;;;;;;;;;;22.81;54.53;94694.63;10451591;28;1959;-73
2023/07/25 03:38:36;;;;;;;;;;;;;;;22.81;54.41;94691.19;10457984;28;4454;-72
2023/07/25 03:43:36;;;;;;;;;;;;;;;22.83;54.50;94700.38;10446854;28;1884;-74
2023/07/25 03:48:36;;;;;;;;;;;;;;;22.84;54.17;94703.78;10448859;28;1979;-73
2023/07/25 03:53:37;;;;;;;;;;;;;;;22.84;54.08;94704.56;10444096;28;1964;-74
2023/07/25 03:58:37;;;;;;;;;;;;;;;22.85;54.11;94692.13;10444325;28;1963;-73
2023/07/25 04:03:37;;;;;;;;;;;;;;;22.83;53.98;94689.81;10447662;28;1920;-73
2023/07/25 04:08:38;;;;;;;;;;;;;;;22.82;53.95;94692.75;10449331;28;1904;-73
2023/07/25 04:13:38;;;;;;;;;;;;;;;22.80;53.78;94697.56;10451196;28;2337;-73
2023/07/25 04:18:38;;;;;;;;;;;;;;;22.80;53.57;94700.22;10455869;28;2075;-73
2023/07/25 04:23:38;;;;;;;;;;;;;;;22.78;53.55;94692.59;10444101;28;1962;-70
2023/07/25 04:28:39;;;;;;;;;;;;;;;22.82;53.40;94712.03;10455743;28;1948;-67
2023/07/25 04:33:39;;;;;;;;;;;;;;;22.86;53.58;94712.16;10464390;28;1928;-69
2023/07/25 04:38:40;;;;;;;;;;;;;;;22.88;53.40;94712.63;10460726;28;4514;-71
2023/07/25 04:43:40;;;;;;;;;;;;;;;22.90;53.43;94707.81;10457324;28;1906;-71
2023/07/25 04:48:40;;;;;;;;;;;;;;;22.92;53.10;94703.78;10456828;28;1892;-71
2023/07/25 04:53:41;;;;;;;;;;;;;;;22.94;53.30;94696.31;10452544;28;1950;-70
2023/07/25 04:58:41;;;;;;;;;;;;;;;22.94;53.07;94688.38;10449049;28;2043;-71
2023/07/25 05:03:41;;;;;;;;;;;;;;;22.98;52.88;94689.31;10447368;28;2011;-71
2023/07/25 05:08:42;;;;;;;;;;;;;;;22.99;53.01;94692.72;10460182;28;2470;-70
2023/07/25 05:13:42;;;;;;;;;;;;;;;23.00;52.82;94676.53;10450229;28;1980;-71
2023/07/25 05:18:42;;;;;;;;;;;;;;;23.02;52.75;94671.72;10446233;28;2104;-70
2023/07/25 05:23:42;;;;;;;;;;;;;;;23.03;52.60;94659.28;10453357;28;1975;-70
2023/07/25 05:28:43;;;;;;;;;;;;;;;23.04;52.76;94639.72;10445509;28;2002;-71
2023/07/25 05:33:43;;;;;;;;;;;;;;;23.05;52.68;94639.38;10447522;28;2028;-71
2023/07/25 05:38:43;;;;;;;;;;;;;;;23.06;52.50;94640.19;10445428;28;4487;-71
2023/07/25 05:43:44;;;;;;;;;;;;;;;23.07;52.56;94631.91;10449752;28;1951;-71
2023/07/25 05:48:44;;;;;;;;;;;;;;;23.08;52.55;94619.50;10459134;28;1905;-70
2023/07/25 05:53:44;;;;;;;;;;;;;;;23.09;52.55;94584.03;10455346;28;1983;-71
2023/07/25 05:58:44;;;;;;;;;;;;;;;23.09;52.46;94563.66;10451284;28;1977;-71
2023/07/25 06:03:45;;;;;;;;;;;;;;;23.11;52.05;94552.75;10462656;28;2249;-72
2023/07/25 06:08:45;;;;;;;;;;;;;;;23.11;51.90;94579.19;10460543;28;1948;-72
2023/07/25 06:13:46;;;;;;;;;;;;;;;23.11;51.64;94563.34;10467121;28;1983;-71
2023/07/25 06:18:46;;;;;;;;;;;;;;;23.12;51.79;94546.38;10458001;28;1939;-71
2023/07/25 06:23:47;;;;;;;;;;;;;;;23.13;51.86;94532.84;10460925;28;1916;-72
2023/07/25 06:28:47;;;;;;;;;;;;;;;23.14;51.48;94552.13;10460603;28;1884;-70
2023/07/25 06:33:47;;;;;;;;;;;;;;;23.14;51.38;94533.63;10462495;28;1963;-71
2023/07/25 06:38:47;;;;;;;;;;;;;;;23.14;51.48;94528.34;10466467;28;4521;-72
2023/07/25 06:43:48;;;;;;;;;;;;;;;23.15;51.37;94525.38;10468255;28;1904;-70
2023/07/25 06:48:48;;;;;;;;;;;;;;;23.17;51.37;94538.28;10464276;28;2036;-71
2023/07/25 06:53:48;;;;;;;;;;;;;;;23.17;51.38;94560.19;10454631;28;1992;-71
2023/07/25 06:58:48;;;;;;;;;;;;;;;23.17;51.36;94564.69;10460226;28;2312;-73
2023/07/25 07:03:49;;;;;;;;;;;;;;;23.18;51.06;94582.13;10468729;28;2210;-71
2023/07/25 07:08:49;;;;;;;;;;;;;;;23.19;51.04;94600.31;10463786;28;1979;-70
2023/07/25 07:13:49;;;;;;;;;;;;;;;23.20;51.12;94601.09;10466750;28;1964;-71
2023/07/25 07:18:51;;;;;;;;;;;;;;;23.19;50.88;94605.59;10459187;28;1923;-71
2023/07/25 07:23:51;;;;;;;;;;;;;;;23.20;50.91;94616.97;10460729;28;2045;-71
2023/07/25 07:28:51;;;;;;;;;;;;;;;23.20;50.99;94617.75;10463843;28;2334;-71
2023/07/25 07:33:51;;;;;;;;;;;;;;;23.22;51.20;94641.22;10456220;28;1968;-71
2023/07/25 07:38:52;;;;;;;;;;;;;;;23.22;51.06;94651.78;10453561;28;4288;-70
2023/07/25 07:43:52;;;;;;;;;;;;;;;23.23;51.03;94651.47;10449801;28;2083;-71
2023/07/25 07:48:52;;;;;;;;;;;;;;;23.24;50.89;94649.59;10454999;28;1881;-70
2023/07/25 07:53:52;;;;;;;;;;;;;;;23.23;50.87;94656.75;10450885;28;1927;-70
2023/07/25 07:58:53;;;;;;;;;;;;;;;23.25;51.04;94661.72;10483372;28;2346;-71
2023/07/25 08:03:53;;;;;;;;;;;;;;;23.24;51.05;94652.25;10449158;28;1871;-71
2023/07/25 08:08:53;;;;;;;;;;;;;;;23.24;51.06;94650.38;10450894;28;1893;-71
2023/07/25 08:13:53;;;;;;;;;;;;;;;23.26;50.73;94658.00;10449553;28;1877;-71
2023/07/25 08:18:54;;;;;;;;;;;;;;;23.26;50.99;94645.56;10448461;28;1909;-71
2023/07/25 08:23:54;;;;;;;;;;;;;;;23.26;50.91;94661.41;10451903;28;1886;-71
2023/07/25 08:28:54;;;;;;;;;;;;;;;23.26;50.54;94669.34;10446551;28;1864;-69
2023/07/25 08:33:56;;;;;;;;;;;;;;;23.27;50.43;94668.25;10448995;28;2043;-70
2023/07/25 08:38:56;;;;;;;;;;;;;;;23.26;50.33;94671.22;10436831;28;4538;-70
2023/07/25 08:43:56;;;;;;;;;;;;;;;23.26;50.35;94672.00;10450470;28;1877;-71
2023/07/25 08:48:59;;;;;;;;;;;;;;;23.27;50.32;94668.25;10450901;28;1855;-72
2023/07/25 08:54:09;;;;;;;;;;;;;;;23.27;50.40;94670.09;10451524;28;2282;-70
2023/07/25 08:59:09;;;;;;;;;;;;;;;23.27;50.28;94680.69;10447980;28;2159;-70
2023/07/25 09:04:10;;;;;;;;;;;;;;;23.28;50.00;94684.88;10447263;28;1953;-69
2023/07/25 09:09:11;;;;;;;;;;;;;;;23.28;50.27;94690.19;10453854;28;1853;-70
2023/07/25 09:14:11;;;;;;;;;;;;;;;23.28;50.20;94698.91;10448039;28;1938;-70
2023/07/25 09:19:12;;;;;;;;;;;;;;;23.28;50.35;94704.19;10442721;28;1969;-69
2023/07/25 09:24:12;;;;;;;;;;;;;;;23.28;49.89;94692.81;10450825;28;2303;-69
2023/07/25 09:29:12;;;;;;;;;;;;;;;23.28;50.09;94683.03;10475837;28;1838;-70
2023/07/25 09:34:17;;;;;;;;;;;;;;;23.29;49.89;94678.50;10453279;28;1826;-72
2023/07/25 09:39:17;;;;;;;;;;;;;;;23.29;49.79;94670.56;10442959;28;1964;-69
2023/07/25 09:44:18;;;;;;;;;;;;;;;23.29;50.16;94675.84;10446375;28;1976;-71
2023/07/25 09:49:21;;;;;;;;;;;;;;;23.29;50.13;94681.13;10476632;28;2292;-71
2023/07/25 09:54:21;;;;;;;;;;;;;;;23.30;50.15;94674.78;10447480;28;1905;-70
2023/07/25 09:59:22;;;;;;;;;;;;;;;23.29;50.10;94668.69;10447882;28;1975;-70
2023/07/25 10:04:22;;;;;;;;;;;;;;;23.30;49.93;94661.56;10443989;28;1957;-72
2023/07/25 10:09:23;;;;;;;;;;;;;;;23.31;49.69;94665.72;10452610;28;1941;-70
2023/07/25 10:14:24;;;;;;;;;;;;;;;23.30;49.84;94664.97;10445182;28;1880;-72
2023/07/25 10:19:24;;;;;;;;;;;;;;;23.32;49.63;94664.69;10449604;28;2007;-71
2023/07/25 10:24:24;;;;;;;;;;;;;;;23.32;49.70;94662.03;10448725;28;2297;-71
2023/07/25 10:29:43;;;;;;;;;;;;;;;23.31;49.53;94661.22;10477189;28;1895;-70
2023/07/25 10:34:45;;;;;;;;;;;;;;;23.31;49.82;94657.81;10446338;28;1847;-72
2023/07/25 10:39:45;;;;;;;;;;;;;;;23.33;49.76;94658.28;10448537;28;1905;-71
2023/07/25 10:44:45;;;;;;;;;;;;;;;23.32;49.83;94662.81;10443791;28;2194;-71
2023/07/25 10:49:55;;;;;;;;;;;;;;;23.35;49.82;94661.41;10450620;28;2071;-70
2023/07/25 10:55:05;;;;;;;;;;;;;;;23.35;49.76;94648.16;10456923;28;1987;-71
2023/07/25 11:00:08;;;;;;;;;;;;;;;23.35;49.74;94661.41;10452477;28;1914;-70
2023/07/25 11:05:12;;;;;;;;;;;;;;;23.35;49.89;94646.31;10451378;28;1876;-71
2023/07/25 11:10:19;;;;;;;;;;;;;;;23.35;49.85;94642.88;10449117;28;1903;-71
2023/07/25 11:15:19;;;;;;;;;;;;;;;23.35;49.74;94651.59;10489357;28;1893;-70
2023/07/25 11:20:21;;;;;;;;;;;;;;;23.36;49.63;94655.03;10489731;28;1993;-70
2023/07/25 11:25:22;;;;;;;;;;;;;;;23.36;49.74;94647.09;10451263;28;2286;-71
2023/07/25 11:30:22;;;;;;;;;;;;;;;23.36;49.72;94647.09;10453659;28;1821;-70
2023/07/25 11:35:24;;;;;;;;;;;;;;;23.36;49.77;94637.31;10452899;28;1861;-70
2023/07/25 11:40:27;;;;;;;;;;;;;;;23.37;49.77;94645.97;10449630;28;4498;-71
2023/07/25 11:45:28;;;;;;;;;;;;;;;23.37;49.40;94659.22;10452371;28;1886;-70
2023/07/25 11:50:28;;;;;;;;;;;;;;;23.37;49.62;94681.16;10454029;28;1893;-71
2023/07/25 11:55:28;;;;;;;;;;;;;;;23.38;49.51;94679.28;10452189;28;1931;-70
2023/07/25 12:00:38;;;;;;;;;;;;;;;23.36;49.19;94663.75;10446489;28;1933;-71
2023/07/25 12:05:39;;;;;;;;;;;;;;;23.37;49.31;94669.78;10461385;28;2146;-71
2023/07/25 12:10:39;;;;;;;;;;;;;;;23.37;49.31;94664.50;10448858;28;1943;-72
2023/07/25 12:15:43;;;;;;;;;;;;;;;23.37;49.46;94665.28;10448420;28;1876;-70
2023/07/25 12:20:43;;;;;;;;;;;;;;;23.37;49.18;94662.63;10457117;28;1965;-71
2023/07/25 12:25:43;;;;;;;;;;;;;;;23.38;49.27;94650.19;10449955;28;2109;-73
2023/07/25 12:30:43;;;;;;;;;;;;;;;23.37;49.31;94648.63;10458668;28;1810;-72
2023/07/25 12:35:44;;;;;;;;;;;;;;;23.38;49.62;94636.97;10453734;28;2426;-71
2023/07/25 12:40:44;;;;;;;;;;;;;;;23.39;49.70;94641.16;10453538;28;5013;-71
2023/07/25 12:45:45;;;;;;;;;;;;;;;23.41;49.51;94654.88;10447103;28;1807;-71
2023/07/25 12:50:45;;;;;;;;;;;;;;;23.42;49.64;94674.91;10455795;28;1873;-73
2023/07/25 12:55:46;;;;;;;;;;;;;;;23.42;49.65;94645.81;10451766;28;1874;-71
2023/07/25 13:00:46;;;;;;;;;;;;;;;23.41;49.73;94639.75;10463270;28;1934;-72
2023/07/25 13:05:47;;;;;;;;;;;;;;;23.42;49.68;94633.38;10454265;28;1877;-72
2023/07/25 13:10:47;;;;;;;;;;;;;;;23.43;49.65;94615.66;10449620;28;1884;-73
2023/07/25 13:15:48;;;;;;;;;;;;;;;23.44;49.64;94617.19;10453926;28;1807;-76
2023/07/25 13:20:49;;;;;;;;;;;;;;;23.45;49.53;94613.47;10459097;28;1976;-72
2023/07/25 13:25:49;;;;;;;;;;;;;;;23.46;49.69;94607.06;10451139;28;2323;-73
2023/07/25 13:30:50;;;;;;;;;;;;;;;23.46;49.73;94593.84;10464826;28;1827;-72
2023/07/25 13:35:50;;;;;;;;;;;;;;;23.48;49.90;94590.88;10441786;28;4498;-69
2023/07/25 13:40:52;;;;;;;;;;;;;;;23.47;49.79;94582.19;10484173;28;1898;-69
2023/07/25 13:45:53;;;;;;;;;;;;;;;23.48;49.75;94575.78;10451034;28;1998;-70
2023/07/25 13:50:53;;;;;;;;;;;;;;;23.49;49.91;94574.69;10451224;28;1870;-70
2023/07/25 13:55:53;;;;;;;;;;;;;;;23.48;50.04;94559.91;10450746;28;1881;-70
2023/07/25 14:00:53;;;;;;;;;;;;;;;23.50;49.93;94572.81;10447147;28;2068;-69
2023/07/25 14:05:54;;;;;;;;;;;;;;;23.50;49.99;94563.00;10439153;28;1964;-70
2023/07/25 14:10:54;;;;;;;;;;;;;;;23.50;50.05;94559.59;10443644;28;1927;-69
2023/07/25 14:15:55;;;;;;;;;;;;;;;23.50;50.17;94565.66;10461865;28;1818;-70
2023/07/25 14:20:59;;;;;;;;;;;;;;;23.50;50.31;94584.16;10444202;28;1913;-69
2023/07/25 14:25:59;;;;;;;;;;;;;;;23.51;50.15;94592.88;10441781;28;1834;-70
2023/07/25 14:30:59;;;;;;;;;;;;;;;23.51;50.06;94633.34;10453945;28;2425;-68
2023/07/25 14:35:59;;;;;;;;;;;;;;;23.51;49.86;94601.59;10453426;28;4535;-70
2023/07/25 14:41:00;;;;;;;;;;;;;;;23.52;49.96;94603.13;10458283;28;1945;-70
2023/07/25 14:46:00;;;;;;;;;;;;;;;23.51;49.88;94591.03;10458717;28;1822;-71
2023/07/25 14:51:00;;;;;;;;;;;;;;;23.51;49.71;94574.38;10466510;28;1827;-73
2023/07/25 14:56:00;;;;;;;;;;;;;;;23.51;49.45;94566.44;10447771;28;1775;-72
2023/07/25 15:01:01;;;;;;;;;;;;;;;23.52;49.90;94563.47;10460460;28;1905;-72
2023/07/25 15:06:01;;;;;;;;;;;;;;;23.52;49.94;94571.41;10457575;28;1884;-70
2023/07/25 15:11:02;;;;;;;;;;;;;;;23.52;50.04;94567.97;10448675;28;1826;-70
2023/07/25 15:16:03;;;;;;;;;;;;;;;23.53;49.99;94565.03;10484715;28;2070;-70
2023/07/25 15:21:03;;;;;;;;;;;;;;;23.52;50.03;94581.97;10450862;28;1938;-70
2023/07/25 15:26:03;;;;;;;;;;;;;;;23.53;49.93;94575.63;10454501;28;2640;-71
2023/07/25 15:31:04;;;;;;;;;;;;;;;23.53;49.96;94570.31;10452867;28;1989;-70
2023/07/25 15:36:04;;;;;;;;;;;;;;;23.54;49.98;94573.72;10452916;28;4557;-71
2023/07/25 15:41:04;;;;;;;;;;;;;;;23.54;49.85;94568.44;10450309;28;2049;-70
2023/07/25 15:46:04;;;;;;;;;;;;;;;23.54;50.16;94563.91;10449157;28;2052;-71
2023/07/25 15:51:06;;;;;;;;;;;;;;;23.54;49.69;94574.50;10450055;28;1851;-72
2023/07/25 15:56:06;;;;;;;;;;;;;;;23.53;50.00;94602.06;10449092;28;1826;-70
2023/07/25 16:01:07;;;;;;;;;;;;;;;23.54;49.86;94600.94;10449500;28;1949;-70
2023/07/25 16:06:07;;;;;;;;;;;;;;;23.55;49.57;94602.50;10455283;28;1927;-71
2023/07/25 16:11:07;;;;;;;;;;;;;;;23.54;49.98;94640.63;10449128;28;1932;-72
2023/07/25 16:16:08;;;;;;;;;;;;;;;23.54;49.47;94688.25;10451332;28;1910;-70
2023/07/25 16:21:08;;;;;;;;;;;;;;;23.55;49.41;94702.25;10450428;28;2328;-71
2023/07/25 16:26:09;;;;;;;;;;;;;;;23.53;49.47;94681.41;10470644;28;1974;-70
2023/07/25 16:31:09;;;;;;;;;;;;;;;23.53;49.57;94659.47;10457176;28;1898;-71
2023/07/25 16:36:09;;;;;;;;;;;;;;;23.53;49.54;94652.31;10434392;28;4509;-70
2023/07/25 16:41:11;;;;;;;;;;;;;;;23.54;49.56;94663.66;10439879;28;2005;-70
2023/07/25 16:46:11;;;;;;;;;;;;;;;23.55;49.56;94683.75;10449327;28;1866;-70
2023/07/25 16:51:12;;;;;;;;;;;;;;;23.53;49.54;94694.63;10447618;28;1874;-70
2023/07/25 16:56:12;;;;;;;;;;;;;;;23.52;49.54;94703.66;10447437;28;1845;-70
2023/07/25 17:01:12;;;;;;;;;;;;;;;23.52;49.44;94719.53;10448249;28;1918;-70
2023/07/25 17:06:13;;;;;;;;;;;;;;;23.52;49.34;94719.53;10442562;28;1890;-70
2023/07/25 17:11:15;;;;;;;;;;;;;;;23.52;49.17;94745.97;10461557;28;1823;-70
2023/07/25 17:16:15;;;;;;;;;;;;;;;23.52;49.20;94745.97;10444984;28;1854;-71
2023/07/25 17:21:15;;;;;;;;;;;;;;;23.51;49.11;94754.25;10437613;28;2300;-72
2023/07/25 17:26:15;;;;;;;;;;;;;;;23.52;49.22;94761.06;10440945;28;2399;-72
2023/07/25 17:31:16;;;;;;;;;;;;;;;23.51;49.14;94764.81;10441637;28;1892;-70
2023/07/25 17:36:17;;;;;;;;;;;;;;;23.51;48.97;94759.53;10440762;28;4533;-68
2023/07/25 17:41:17;;;;;;;;;;;;;;;22.92;47.80;94755.84;10437622;28;1961;-67
2023/07/25 17:46:17;;;;;;;;;;;;;;;22.50;47.75;94752.09;10436835;28;1904;-68
2023/07/25 17:51:18;;;;;;;;;;;;;;;22.06;48.38;94750.44;10438063;28;1842;-68
2023/07/25 17:56:19;;;;;;;;;;;;;;;21.87;48.64;94744.63;10439983;28;2134;-66
2023/07/25 18:01:20;;;;;;;;;;;;;;;21.57;48.75;94740.13;10439590;28;1910;-67
2023/07/25 18:06:20;;;;;;;;;;;;;;;21.34;48.92;94730.72;10436730;28;1897;-68
2023/07/25 18:11:20;;;;;;;;;;;;;;;21.24;49.63;94744.16;10439026;28;2093;-68
2023/07/25 18:16:20;;;;;;;;;;;;;;;21.16;49.65;94748.28;10442033;28;1866;-67
2023/07/25 18:21:21;;;;;;;;;;;;;;;21.39;49.51;94772.78;10438874;28;2056;-66
2023/07/25 18:26:21;;;;;;;;;;;;;;;21.60;49.08;94777.22;10438105;28;2303;-66
2023/07/25 18:31:21;;;;;;;;;;;;;;;21.74;49.39;94787.69;10438798;28;1858;-66
2023/07/25 18:36:22;;;;;;;;;;;;;;;21.83;49.17;94791.16;10433967;28;4676;-66
2023/07/25 18:41:22;;;;;;;;;;;;;;;21.92;48.96;94788.56;10436207;28;1914;-67
2023/07/25 18:46:22;;;;;;;;;;;;;;;21.99;48.59;94771.19;10438468;28;1964;-67
2023/07/25 18:51:23;;;;;;;;;;;;;;;22.02;48.56;94783.81;10437743;28;1882;-66
2023/07/25 18:56:23;;;;;;;;;;;;;;;22.09;48.18;94797.31;10441749;28;1818;-67
2023/07/25 19:01:23;;;;;;;;;;;;;;;22.17;48.36;94812.44;10444396;28;1977;-68
2023/07/25 19:06:24;;;;;;;;;;;;;;;22.23;48.63;94827.03;10445947;28;1886;-68
2023/07/25 19:11:24;;;;;;;;;;;;;;;22.29;48.64;94852.22;10466870;28;2404;-68
2023/07/25 19:16:24;;;;;;;;;;;;;;;22.38;48.71;94860.94;10449583;28;1850;-68
2023/07/25 19:21:24;;;;;;;;;;;;;;;22.44;48.78;94874.78;10444357;28;1981;-67
2023/07/25 19:26:25;;;;;;;;;;;;;;;22.49;48.45;94867.50;10450145;28;1751;-67
2023/07/25 19:31:25;;;;;;;;;;;;;;;22.53;48.43;94849.97;10444199;28;1877;-68
2023/07/25 19:36:25;;;;;;;;;;;;;;;22.58;48.70;94857.78;10446816;28;4453;-68
2023/07/25 19:41:26;;;;;;;;;;;;;;;22.62;48.38;94834.16;10448216;28;1961;-62
2023/07/25 19:46:26;;;;;;;;;;;;;;;22.64;48.31;94824.84;10448855;28;1897;-67
2023/07/25 19:51:26;;;;;;;;;;;;;;;22.68;48.43;94830.28;10445203;28;1862;-68
2023/07/25 19:56:33;;;;;;;;;;;;;;;22.70;48.43;94846.59;10472937;28;1878;-73
2023/07/25 20:01:33;;;;;;;;;;;;;;;22.72;48.48;94875.34;10444423;28;1744;-70
2023/07/25 20:06:34;;;;;;;;;;;;;;;22.76;48.33;94876.28;10444523;28;2285;-70
2023/07/25 20:11:34;;;;;;;;;;;;;;;22.79;48.56;94897.59;10443408;28;1854;-69
2023/07/25 20:16:36;;;;;;;;;;;;;;;22.81;48.53;94894.66;10441142;28;1979;-69
2023/07/25 20:21:36;;;;;;;;;;;;;;;22.83;48.71;94913.63;10475386;28;2120;-69
2023/07/25 20:26:36;;;;;;;;;;;;;;;22.84;48.55;94915.16;10441028;28;1882;-71
2023/07/25 20:31:36;;;;;;;;;;;;;;;22.85;48.82;94920.16;10443101;28;1797;-73
2023/07/25 20:36:37;;;;;;;;;;;;;;;22.87;48.54;94931.19;10446105;28;4716;-70
2023/07/25 20:41:37;;;;;;;;;;;;;;;22.88;48.62;94935.38;10442718;28;1884;-71
2023/07/25 20:46:37;;;;;;;;;;;;;;;22.89;48.60;94938.81;10450641;28;1871;-70
2023/07/25 20:51:38;;;;;;;;;;;;;;;22.89;48.54;94949.38;10443465;28;1810;-71
2023/07/25 20:56:38;;;;;;;;;;;;;;;22.90;48.29;94945.63;10446601;28;1994;-72
2023/07/25 21:01:38;;;;;;;;;;;;;;;22.90;48.45;94948.28;10446259;28;1834;-71
2023/07/25 21:06:39;;;;;;;;;;;;;;;22.91;48.56;94963.06;10443666;28;1866;-70
2023/07/25 21:11:39;;;;;;;;;;;;;;;22.92;48.35;94954.03;10440870;28;2033;-71
2023/07/25 21:16:39;;;;;;;;;;;;;;;22.92;48.29;94956.69;10446987;28;1910;-71
2023/07/25 21:21:39;;;;;;;;;;;;;;;22.92;48.32;94960.13;10444280;28;1889;-70
2023/07/25 21:26:40;;;;;;;;;;;;;;;22.92;48.55;94954.03;10443595;28;1890;-70
2023/07/25 21:31:40;;;;;;;;;;;;;;;22.93;48.17;94958.25;10442309;28;1814;-71
2023/07/25 21:36:44;;;;;;;;;;;;;;;22.92;48.05;94960.13;10447435;28;1886;-70
2023/07/25 21:41:46;;;;;;;;;;;;;;;22.91;48.13;94968.34;10439242;28;1836;-71
2023/07/25 21:46:46;;;;;;;;;;;;;;;22.92;48.03;94959.31;10440645;28;1866;-71
2023/07/25 21:51:46;;;;;;;;;;;;;;;22.92;48.05;94962.75;10445307;28;1870;-70
2023/07/25 21:56:46;;;;;;;;;;;;;;;22.91;48.01;94977.06;10440331;28;1968;-70
2023/07/25 22:01:49;;;;;;;;;;;;;;;22.92;48.09;94985.75;10444163;28;2236;-70
2023/07/25 22:06:49;;;;;;;;;;;;;;;22.91;48.34;94998.22;10438042;28;1874;-70
2023/07/25 22:11:50;;;;;;;;;;;;;;;22.92;48.13;95005.03;10442429;28;2060;-70
2023/07/25 22:16:51;;;;;;;;;;;;;;;22.90;47.98;95004.56;10440323;28;1910;-70
2023/07/25 22:21:51;;;;;;;;;;;;;;;22.91;48.10;95010.63;10460391;28;1858;-71
2023/07/25 22:26:52;;;;;;;;;;;;;;;22.92;47.91;95017.47;10442631;28;1806;-70
2023/07/25 22:31:52;;;;;;;;;;;;;;;22.91;48.06;95026.50;10445992;28;1751;-72
2023/07/25 22:36:52;;;;;;;;;;;;;;;22.90;48.06;95028.34;10441039;28;4549;-70
2023/07/25 22:41:52;;;;;;;;;;;;;;;22.91;47.81;95037.06;10447420;28;1905;-71
2023/07/25 22:46:53;;;;;;;;;;;;;;;22.90;47.79;95038.91;10442307;28;1830;-73
2023/07/25 22:51:53;;;;;;;;;;;;;;;22.90;47.83;95051.34;10450582;28;1906;-71
2023/07/25 22:56:53;;;;;;;;;;;;;;;22.90;47.73;95051.34;10444803;28;2273;-71
2023/07/25 23:01:53;;;;;;;;;;;;;;;22.91;47.88;95063.50;10446733;28;2042;-70
2023/07/25 23:06:54;;;;;;;;;;;;;;;22.90;47.77;95062.72;10451896;28;1874;-70
2023/07/25 23:11:54;;;;;;;;;;;;;;;22.90;47.60;95069.84;10453776;28;1997;-70
2023/07/25 23:16:54;;;;;;;;;;;;;;;22.91;47.73;95066.13;10448962;28;1906;-70
2023/07/25 23:21:54;;;;;;;;;;;;;;;22.91;47.56;95079.34;10467047;28;1874;-71
2023/07/25 23:26:55;;;;;;;;;;;;;;;22.90;47.58;95085.72;10449034;28;1917;-70
2023/07/25 23:31:55;;;;;;;;;;;;;;;22.90;47.51;95086.50;10447263;28;1882;-70
2023/07/25 23:36:55;;;;;;;;;;;;;;;22.89;47.48;95087.59;10450383;28;4552;-71
2023/07/25 23:41:56;;;;;;;;;;;;;;;22.91;47.50;95097.84;10447882;28;1846;-70
2023/07/25 23:46:56;;;;;;;;;;;;;;;22.89;47.46;95098.16;10448698;28;1822;-71
2023/07/25 23:51:56;;;;;;;;;;;;;;;22.90;47.48;95101.56;10449019;28;2280;-70
2023/07/25 23:56:56;;;;;;;;;;;;;;;22.90;47.35;95115.56;10446810;28;1976;-70
